This demonstration page uses our WeatherBlox Daily Observations layout. Learn more.

38.88101, -77.10428

Hourly Observations for January 29, 2016

Temp ( °F °C ) Dew Point ( °F °C ) Humidity (%) Winds ( mph kmh ) Pressure ( in mb ) Visibility ( mi km ) Precip ( " mm )
12:52 am 00:52 Mostly Cloudy 35 1.7 27 -2.8 72 72 W 3 6 29.65 1004 10 16.0934 0 0
1:52 am 01:52 Mostly Cloudy 32 0 27 -2.8 82 82 S 7 11 29.62 1003 10 16.0934 0 0
2:52 am 02:52 Partly Cloudy 31 -0.6 26 -3.3 82 82 WSW 5 7 29.6 1002 10 16.0934 0 0
3:52 am 03:52 Clear 30 -1.1 26 -3.3 85 85 S 5 7 29.57 1001 10 16.0934 0 0
4:52 am 04:52 Mostly Clear 29 -1.7 26 -3.3 89 89 Calm 29.56 1001 10 16.0934 0 0
5:52 am 05:52 Mostly Cloudy 30 -1.1 27 -2.8 88 88 S 6 9 29.58 1002 10 16.0934 0 0
6:52 am 06:52 Mostly Cloudy 39 3.9 26 -3.3 60 60 W 10 17 29.59 1002 10 16.0934 0 0
7:52 am 07:52 Mostly Cloudy 37 2.8 27 -2.8 67 67 WSW 6 9 29.6 1002 10 16.0934 0 0
8:52 am 08:52 Mostly Cloudy 41 5 26 -3.3 55 55 W 7 11 29.61 1003 10 16.0934 0 0
9:52 am 09:52 Mostly Cloudy 43 6.1 26 -3.3 51 51 WNW 16 26 29.63 1004 10 16.0934 0 0
10:52 am 10:52 Cloudy 38 3.3 28 -2.2 68 68 WNW 13 20 29.67 1005 9 14.48406 0 0.0254
11:52 am 11:52 Mostly Cloudy 41 5 21 -6.1 45 45 NW 25 41 29.66 1004 10 16.0934 0.01 0.254
12:52 pm 12:52 Mostly Cloudy with Scattered Snow Showers 39 3.9 22 -5.6 50 50 W 21 33 29.69 1005 9 14.48406 0 0.0254
1:52 pm 13:52 Mostly Cloudy with Scattered Snow Showers 40 4.4 22 -5.6 49 49 NW 21 33 29.7 1006 9 14.48406 0 0.0254
2:52 pm 14:52 Mostly Cloudy 40 4.4 18 -7.8 41 41 NW 21 33 29.73 1007 10 16.0934 0 0.0254
3:52 pm 15:52 Mostly Cloudy 38 3.3 17 -8.3 43 43 WNW 24 39 29.78 1009 10 16.0934 0 0
4:52 pm 16:52 Mostly Cloudy 37 2.8 17 -8.3 44 44 NW 20 31 29.82 1010 10 16.0934 0 0
5:52 pm 17:52 Mostly Clear 36 2.2 17 -8.3 46 46 WNW 18 30 29.86 1011 10 16.0934 0 0
6:52 pm 18:52 Mostly Clear 35 1.7 17 -8.3 48 48 WNW 13 20 29.9 1013 10 16.0934 0 0
7:52 pm 19:52 Clear 34 1.1 17 -8.3 50 50 WNW 13 20 29.93 1013 10 16.0934 0 0
8:52 pm 20:52 Clear 33 0.6 16 -8.9 49 49 NW 13 20 29.95 1014 10 16.0934 0 0
9:52 pm 21:52 Clear 33 0.6 16 -8.9 49 49 NW 10 17 29.98 1015 10 16.0934 0 0
10:52 pm 22:52 Clear 32 0 16 -8.9 52 52 WNW 8 13 30 1016 10 16.0934 0 0
11:52 pm 23:52 Clear 31 -0.6 15 -9.4 52 52 W 6 9 30.02 1017 10 16.0934 0 0

Powered by AerisWeather